Time;durP1;ratioP1;P1;durP2;ratioP2;P2;SDS_P1;SDS_P2;PMS_P1;PMS_P2;Temp;Humidity;BMP_temperature;BMP_pressure;BME280_temperature;BME280_humidity;BME280_pressure;Samples;Min_cycle;Max_cycle;Signal;HPM_P1;HPM_P2
2021/10/22 00:00:38;;;;;;;;;7.75;7.75;;;;;-147.17;100.00;49739.72;5069798;28;51172;-54
2021/10/22 00:03:04;;;;;;;;;12.00;10.25;;;;;-147.17;100.00;49714.13;5074584;28;51104;-55
2021/10/22 00:05:32;;;;;;;;;8.75;8.75;;;;;-147.17;100.00;49745.63;5044505;28;51312;-55
2021/10/22 00:07:58;;;;;;;;;10.25;9.00;;;;;-147.17;100.00;49725.94;5070666;28;52856;-55
2021/10/22 00:10:24;;;;;;;;;9.50;8.50;;;;;-147.17;100.00;49749.56;5040304;28;50941;-55
2021/10/22 00:12:49;;;;;;;;;9.00;9.00;;;;;-147.17;100.00;49710.19;5054876;28;51008;-56
2021/10/22 00:15:14;;;;;;;;;7.25;6.75;;;;;-147.17;100.00;49722.00;5070200;28;51297;-55
2021/10/22 00:17:40;;;;;;;;;8.75;8.00;;;;;-147.17;100.00;49733.81;5071536;28;51129;-54
2021/10/22 00:20:08;;;;;;;;;7.25;7.00;;;;;-147.17;100.00;49757.44;5075205;28;51049;-56
2021/10/22 00:22:33;;;;;;;;;12.25;11.25;;;;;-147.17;100.00;49761.38;5057277;28;51107;-54
2021/10/22 00:24:59;;;;;;;;;16.25;13.50;;;;;-147.17;100.00;49706.25;5056580;28;51002;-53
2021/10/22 00:27:24;;;;;;;;;9.25;8.50;;;;;-147.17;100.00;49733.81;5062422;28;51887;-54
2021/10/22 00:29:49;;;;;;;;;11.75;10.25;;;;;-147.17;100.00;49737.75;5056298;28;51016;-54
2021/10/22 00:32:15;;;;;;;;;12.50;12.00;;;;;-147.17;100.00;49745.63;5063443;28;50959;-54
2021/10/22 00:34:40;;;;;;;;;13.00;12.75;;;;;-147.17;100.00;49745.63;5063285;28;51249;-56
2021/10/22 00:37:05;;;;;;;;;12.25;12.25;;;;;-147.17;100.00;49741.69;5065779;28;52780;-55
2021/10/22 00:39:31;;;;;;;;;11.50;9.75;;;;;-147.17;100.00;49725.94;5074184;28;52770;-54
2021/10/22 00:41:56;;;;;;;;;9.50;9.50;;;;;-147.17;100.00;49714.13;5074527;28;50990;-54
2021/10/22 00:44:22;;;;;;;;;11.00;11.00;;;;;-147.17;100.00;49714.13;5072888;28;51401;-56
2021/10/22 00:46:47;;;;;;;;;12.00;12.00;;;;;-147.17;100.00;49714.13;5062702;28;51248;-55
2021/10/22 00:49:13;;;;;;;;;14.50;14.25;;;;;-147.17;100.00;49733.81;5054271;28;51149;-55
2021/10/22 00:51:39;;;;;;;;;12.50;12.50;;;;;-147.17;100.00;49747.59;5061349;28;50968;-54
2021/10/22 00:54:08;;;;;;;;;13.00;12.00;;;;;-147.17;100.00;49741.69;5059115;28;50851;-55
2021/10/22 00:56:34;;;;;;;;;13.25;12.25;;;;;-147.17;100.00;49757.44;5073425;28;51179;-56
2021/10/22 00:59:02;;;;;;;;;12.75;12.75;;;;;-147.17;100.00;49733.81;5054170;28;51343;-54
2021/10/22 01:01:27;;;;;;;;;11.25;11.00;;;;;-147.17;100.00;49729.88;5073462;28;50981;-53
2021/10/22 01:03:52;;;;;;;;;12.75;12.75;;;;;-147.17;100.00;49708.22;5056189;28;50967;-56
2021/10/22 01:06:18;;;;;;;;;15.25;14.75;;;;;-147.17;100.00;49714.13;5056822;28;51050;-54
2021/10/22 01:08:43;;;;;;;;;7.75;7.75;;;;;-147.17;100.00;49725.94;5071039;28;51204;-51
2021/10/22 01:11:09;;;;;;;;;8.50;8.25;;;;;-147.17;100.00;49702.31;5074175;28;51155;-55
2021/10/22 01:13:36;;;;;;;;;9.50;8.50;;;;;-147.17;100.00;49706.25;5070601;28;50951;-55
2021/10/22 01:16:01;;;;;;;;;8.75;8.50;;;;;-147.17;100.00;49722.00;5059494;28;53095;-54
2021/10/22 01:18:27;;;;;;;;;11.50;10.00;;;;;-147.17;100.00;49706.25;5065837;28;51010;-54
2021/10/22 01:21:02;;;;;;;;;9.50;9.50;;;;;-147.17;100.00;49737.75;5054081;28;50887;-55
2021/10/22 01:23:28;;;;;;;;;9.00;9.00;;;;;-147.17;100.00;49706.25;5067420;28;51006;-56
2021/10/22 01:25:54;;;;;;;;;12.25;11.50;;;;;-147.17;100.00;49686.56;5060715;28;51651;-54
2021/10/22 01:28:20;;;;;;;;;9.00;9.00;;;;;-147.17;100.00;49733.81;5063446;28;51093;-56
2021/10/22 01:30:46;;;;;;;;;11.00;10.25;;;;;-147.17;100.00;49720.03;5054272;28;50948;-55
2021/10/22 01:33:12;;;;;;;;;11.00;9.00;;;;;-147.17;100.00;49731.84;5054047;28;50981;-55
2021/10/22 01:35:37;;;;;;;;;8.50;7.50;;;;;-147.17;100.00;49741.69;5066047;28;51127;-56
2021/10/22 01:38:03;;;;;;;;;8.25;8.25;;;;;-147.17;100.00;49674.75;5047651;28;51056;-55
2021/10/22 01:40:29;;;;;;;;;9.00;9.00;;;;;-147.17;100.00;49718.06;5066981;28;51026;-51
2021/10/22 01:42:55;;;;;;;;;12.00;9.75;;;;;-147.17;100.00;49706.25;5074415;28;51014;-54
2021/10/22 01:45:21;;;;;;;;;8.75;8.00;;;;;-147.17;100.00;49710.19;5073056;28;53095;-54
2021/10/22 01:47:46;;;;;;;;;7.50;7.00;;;;;-147.17;100.00;49710.19;5061047;28;51234;-54
2021/10/22 01:50:11;;;;;;;;;11.50;8.50;;;;;-147.17;100.00;49718.06;5055939;28;51503;-53
2021/10/22 01:52:37;;;;;;;;;8.50;8.00;;;;;-147.17;100.00;49698.38;5074227;28;50952;-55
2021/10/22 01:55:03;;;;;;;;;8.00;8.00;;;;;-147.17;100.00;49688.53;5072026;28;51755;-55
2021/10/22 01:57:28;;;;;;;;;8.25;7.50;;;;;-147.17;100.00;49680.66;5054639;28;51135;-56
2021/10/22 01:59:54;;;;;;;;;8.75;8.75;;;;;-147.17;100.00;49712.16;5074122;28;51091;-54
2021/10/22 02:02:19;;;;;;;;;9.00;8.25;;;;;-147.17;100.00;49718.06;5074144;28;51323;-53
2021/10/22 02:04:45;;;;;;;;;7.25;7.00;;;;;-147.17;100.00;49729.88;5073778;28;51640;-55
2021/10/22 02:07:10;;;;;;;;;10.75;8.75;;;;;-147.17;100.00;49718.06;5072944;28;51005;-55
2021/10/22 02:09:36;;;;;;;;;10.25;9.00;;;;;-147.17;100.00;49718.06;5071951;28;51394;-55
2021/10/22 02:12:02;;;;;;;;;9.75;9.75;;;;;-147.17;100.00;49727.91;5060695;28;51132;-53
2021/10/22 02:14:28;;;;;;;;;15.50;11.75;;;;;-147.17;100.00;49722.00;5073691;28;51941;-56
2021/10/22 02:16:53;;;;;;;;;8.75;8.75;;;;;-147.17;100.00;49741.69;5067134;28;50877;-51
2021/10/22 02:19:19;;;;;;;;;11.75;10.00;;;;;-147.17;100.00;49735.78;5061610;28;51078;-52
2021/10/22 02:21:44;;;;;;;;;9.75;7.75;;;;;-147.17;100.00;49696.41;5067139;28;50835;-56
2021/10/22 02:24:09;;;;;;;;;9.00;8.50;;;;;-147.17;100.00;49718.06;5052995;28;51838;-56
2021/10/22 02:26:35;;;;;;;;;10.50;8.75;;;;;-147.17;100.00;49722.00;5071051;28;51125;-52
2021/10/22 02:29:01;;;;;;;;;7.50;7.50;;;;;-147.17;100.00;49720.03;5060469;28;51161;-51
2021/10/22 02:31:27;;;;;;;;;9.50;9.50;;;;;-147.17;100.00;49710.19;5060768;28;51162;-54
2021/10/22 02:33:53;;;;;;;;;7.75;7.75;;;;;-147.17;100.00;49753.50;5055821;28;50918;-54
2021/10/22 02:36:18;;;;;;;;;7.00;7.00;;;;;-147.17;100.00;49714.13;5073333;28;51804;-52
2021/10/22 02:38:44;;;;;;;;;8.00;7.00;;;;;-147.17;100.00;49725.94;5072167;28;51119;-55
2021/10/22 02:41:10;;;;;;;;;6.50;6.50;;;;;-147.17;100.00;49716.09;5056645;28;51325;-54
2021/10/22 02:43:36;;;;;;;;;7.00;7.00;;;;;-147.17;100.00;49722.00;5054413;28;51683;-54
2021/10/22 02:46:01;;;;;;;;;7.00;6.75;;;;;-147.17;100.00;49733.81;5055361;28;51070;-54
2021/10/22 02:48:27;;;;;;;;;7.25;7.00;;;;;-147.17;100.00;49749.56;5036165;28;51148;-55
2021/10/22 02:50:52;;;;;;;;;4.00;4.00;;;;;-147.17;100.00;49735.78;5065031;28;51007;-53
2021/10/22 02:53:18;;;;;;;;;7.75;7.00;;;;;-147.17;100.00;49745.63;5072895;28;51613;-55
2021/10/22 02:55:43;;;;;;;;;7.25;6.75;;;;;-147.17;100.00;49737.75;5073158;28;51049;-54
2021/10/22 02:58:08;;;;;;;;;5.75;4.00;;;;;-147.17;100.00;49714.13;5072023;28;50945;-53
2021/10/22 03:00:35;;;;;;;;;4.50;4.50;;;;;-147.17;100.00;49737.75;5059860;28;50900;-53
2021/10/22 03:03:00;;;;;;;;;7.00;6.75;;;;;-147.17;100.00;49779.09;5044407;28;52960;-54
2021/10/22 03:05:29;;;;;;;;;6.00;6.00;;;;;-147.17;100.00;49723.97;5072050;28;51085;-52
2021/10/22 03:07:54;;;;;;;;;6.75;6.00;;;;;-147.17;100.00;49720.03;5071458;28;51257;-55
2021/10/22 03:10:20;;;;;;;;;7.50;6.00;;;;;-147.17;100.00;49723.97;5057868;28;51174;-54
2021/10/22 03:12:45;;;;;;;;;4.00;4.00;;;;;-147.17;100.00;49714.13;5052452;28;50986;-53
2021/10/22 03:15:10;;;;;;;;;4.00;4.00;;;;;-147.17;100.00;49765.31;5062107;28;51105;-53
2021/10/22 03:17:36;;;;;;;;;5.50;5.50;;;;;-147.17;100.00;49733.81;5071788;28;51425;-54
2021/10/22 03:20:02;;;;;;;;;7.00;6.00;;;;;-147.17;100.00;49723.97;5058634;28;51190;-55
2021/10/22 03:22:27;;;;;;;;;8.00;6.00;;;;;-147.17;100.00;49741.69;5044587;28;52364;-53
2021/10/22 03:24:53;;;;;;;;;6.50;6.00;;;;;-147.17;100.00;49739.72;5056065;28;51497;-54
2021/10/22 03:27:20;;;;;;;;;5.50;5.00;;;;;-147.17;100.00;49704.28;5071913;28;51187;-53
2021/10/22 03:29:46;;;;;;;;;4.00;4.00;;;;;-147.17;100.00;49745.63;5054976;28;51287;-53
2021/10/22 03:32:11;;;;;;;;;6.00;3.75;;;;;-147.17;100.00;49749.56;5059758;28;52692;-55
2021/10/22 03:34:37;;;;;;;;;4.00;3.00;;;;;-147.17;100.00;49729.88;5065868;28;51097;-54
2021/10/22 03:37:03;;;;;;;;;4.00;4.00;;;;;-147.17;100.00;49729.88;5072696;28;51273;-52
2021/10/22 03:39:28;;;;;;;;;3.00;3.00;;;;;-147.17;100.00;49749.56;5058603;28;50967;-54
2021/10/22 03:41:54;;;;;;;;;4.50;3.50;;;;;-147.17;100.00;49757.44;5044816;28;51879;-54
2021/10/22 03:44:19;;;;;;;;;6.25;3.25;;;;;-147.17;100.00;49757.44;5057189;28;51259;-54
2021/10/22 03:46:45;;;;;;;;;7.75;4.00;;;;;-147.17;100.00;49749.56;5055990;28;51658;-53
2021/10/22 03:49:10;;;;;;;;;1.00;0.75;;;;;-147.17;100.00;49759.41;5066861;28;51141;-56
2021/10/22 03:51:36;;;;;;;;;5.00;3.50;;;;;-147.17;100.00;49761.38;5063326;28;53066;-53
2021/10/22 03:54:01;;;;;;;;;6.00;4.25;;;;;-147.17;100.00;49749.56;5072405;28;52440;-54
2021/10/22 03:56:27;;;;;;;;;2.75;2.75;;;;;-147.17;100.00;49765.31;5075281;28;52805;-50
2021/10/22 03:58:52;;;;;;;;;4.25;4.25;;;;;-147.17;100.00;49753.50;5075866;28;51110;-54
2021/10/22 04:01:18;;;;;;;;;5.50;3.75;;;;;-147.17;100.00;49775.16;5074079;28;51367;-53
2021/10/22 04:03:44;;;;;;;;;4.50;4.50;;;;;-147.17;100.00;49761.38;5075815;28;51109;-56
2021/10/22 04:06:09;;;;;;;;;3.25;2.50;;;;;-147.17;100.00;49788.91;5072568;28;50805;-54
2021/10/22 04:08:35;;;;;;;;;2.50;2.00;;;;;-147.17;100.00;49765.31;5075564;28;50983;-54
2021/10/22 04:11:00;;;;;;;;;4.00;4.00;;;;;-147.17;100.00;49773.19;5046108;28;52189;-52
2021/10/22 04:13:26;;;;;;;;;4.25;4.25;;;;;-147.17;100.00;49794.81;5061699;28;50908;-53
2021/10/22 04:15:51;;;;;;;;;3.75;3.75;;;;;-147.17;100.00;49771.22;5054664;28;51130;-55
2021/10/22 04:18:17;;;;;;;;;2.00;2.00;;;;;-147.17;100.00;49773.19;5057802;28;51324;-55
2021/10/22 04:20:42;;;;;;;;;4.25;4.25;;;;;-147.17;100.00;49779.09;5055264;28;51122;-54
2021/10/22 04:23:08;;;;;;;;;3.00;3.00;;;;;-147.17;100.00;49781.06;5058476;28;51006;-54
2021/10/22 04:25:34;;;;;;;;;6.25;4.25;;;;;-147.17;100.00;49737.75;5064147;28;51737;-53
2021/10/22 04:28:01;;;;;;;;;6.50;4.25;;;;;-147.17;100.00;49792.84;5071892;28;51106;-52
2021/10/22 04:30:26;;;;;;;;;7.00;6.00;;;;;-147.17;100.00;49759.41;5056394;28;52024;-53
2021/10/22 04:32:52;;;;;;;;;5.75;4.25;;;;;-147.17;100.00;49777.13;5058423;28;50990;-53
2021/10/22 04:35:18;;;;;;;;;4.50;4.50;;;;;-147.17;100.00;49753.50;5056869;28;51082;-53
2021/10/22 04:40:31;;;;;;;;;5.00;3.25;;;;;-147.17;100.00;49747.59;5073607;28;50862;-54
2021/10/22 04:43:05;;;;;;;;;4.00;3.00;;;;;-147.17;100.00;49755.47;5061492;28;50987;-52
2021/10/22 04:45:33;;;;;;;;;3.00;2.25;;;;;-147.17;100.00;49741.69;5073478;28;51021;-53
2021/10/22 04:47:59;;;;;;;;;3.00;3.00;;;;;-147.17;100.00;49773.19;5055296;28;51243;-51
2021/10/22 04:50:25;;;;;;;;;29.50;27.75;;;;;-147.17;100.00;49749.56;5054089;28;51215;-52
2021/10/22 04:52:54;;;;;;;;;3.00;3.00;;;;;-147.17;100.00;49759.41;5054779;28;51084;-54
2021/10/22 04:55:23;;;;;;;;;6.50;5.00;;;;;-147.17;100.00;49773.19;5055728;28;50952;-57
2021/10/22 04:57:52;;;;;;;;;6.00;6.00;;;;;-147.17;100.00;49763.34;5073485;28;51139;-55
2021/10/22 05:00:19;;;;;;;;;8.00;7.00;;;;;-147.17;100.00;49771.22;5040474;28;54017;-54
2021/10/22 05:02:45;;;;;;;;;5.75;5.50;;;;;-147.17;100.00;49777.13;5057224;28;51197;-53
2021/10/22 05:05:11;;;;;;;;;6.00;3.75;;;;;-147.17;100.00;49781.06;5036670;28;50966;-53
2021/10/22 05:07:36;;;;;;;;;3.00;3.00;;;;;-147.17;100.00;49777.13;5057549;28;51317;-56
2021/10/22 05:10:03;;;;;;;;;3.00;3.00;;;;;-147.17;100.00;49733.81;5060590;28;52953;-55
2021/10/22 05:12:28;;;;;;;;;3.00;3.00;;;;;-147.17;100.00;49769.25;5074367;28;51278;-55
2021/10/22 05:14:54;;;;;;;;;2.75;2.00;;;;;-147.17;100.00;49769.25;5064393;28;50971;-55
2021/10/22 05:17:19;;;;;;;;;2.25;2.25;;;;;-147.17;100.00;49759.41;5069623;28;50939;-54
2021/10/22 05:19:44;;;;;;;;;3.00;2.25;;;;;-147.17;100.00;49767.28;5073410;28;51627;-55
2021/10/22 05:22:10;;;;;;;;;3.00;3.00;;;;;-147.17;100.00;49788.91;5060733;28;51188;-54
2021/10/22 05:24:35;;;;;;;;;4.25;3.50;;;;;-147.17;100.00;49781.06;5058146;28;51376;-54
2021/10/22 05:27:01;;;;;;;;;4.00;3.00;;;;;-147.17;100.00;49769.25;5054900;28;51348;-54
2021/10/22 05:29:26;;;;;;;;;3.00;2.75;;;;;-147.17;100.00;49765.31;5062986;28;51123;-56
2021/10/22 05:31:52;;;;;;;;;3.00;3.00;;;;;-147.17;100.00;49757.44;5071645;28;51221;-54
2021/10/22 05:34:20;;;;;;;;;4.25;3.25;;;;;-147.17;100.00;49757.44;5066605;28;51125;-55
2021/10/22 05:36:47;;;;;;;;;2.00;2.00;;;;;-147.17;100.00;49788.91;5070546;28;52062;-54
2021/10/22 05:39:15;;;;;;;;;3.50;3.50;;;;;-147.17;100.00;49804.66;5062770;28;51956;-53
2021/10/22 05:41:40;;;;;;;;;2.25;1.75;;;;;-147.17;100.00;49769.25;5068763;28;51102;-53
2021/10/22 05:44:06;;;;;;;;;2.50;2.00;;;;;-147.17;100.00;49820.41;5069077;28;51044;-54
2021/10/22 05:46:31;;;;;;;;;3.00;2.00;;;;;-147.17;100.00;49808.59;5057557;28;51430;-55
2021/10/22 05:48:57;;;;;;;;;2.75;2.75;;;;;-147.17;100.00;49798.75;5062199;28;51976;-55
2021/10/22 05:51:23;;;;;;;;;3.75;3.75;;;;;-147.17;100.00;49828.28;5061708;28;51196;-54
2021/10/22 05:53:48;;;;;;;;;2.00;1.75;;;;;-147.17;100.00;49816.47;5055452;28;51035;-53
2021/10/22 05:56:13;;;;;;;;;3.25;3.00;;;;;-147.17;100.00;49771.22;5071751;28;51367;-54
2021/10/22 05:58:39;;;;;;;;;3.00;3.00;;;;;-147.17;100.00;49812.53;5053184;28;50978;-55
2021/10/22 06:01:04;;;;;;;;;2.50;2.00;;;;;-147.17;100.00;49808.59;5052913;28;50925;-54
2021/10/22 06:03:29;;;;;;;;;5.00;3.00;;;;;-147.17;100.00;49794.81;5053548;28;51162;-54
2021/10/22 06:05:55;;;;;;;;;3.00;3.00;;;;;-147.17;100.00;49792.84;5057999;28;50935;-55
2021/10/22 06:08:22;;;;;;;;;3.00;3.00;;;;;-147.17;100.00;49804.66;5073486;28;51626;-55
2021/10/22 06:10:47;;;;;;;;;1.75;1.75;;;;;-147.17;100.00;49792.84;5073607;28;50873;-54
2021/10/22 06:13:16;;;;;;;;;4.75;4.00;;;;;-147.17;100.00;49838.13;5066641;28;51062;-56
2021/10/22 06:15:42;;;;;;;;;1.00;1.00;;;;;-147.17;100.00;49812.53;5053566;28;51224;-54
2021/10/22 06:18:08;;;;;;;;;3.00;2.00;;;;;-147.17;100.00;49812.53;5053153;28;52005;-51
2021/10/22 06:20:51;;;;;;;;;4.25;3.00;;;;;-147.17;100.00;49804.66;5053102;28;50921;-55
2021/10/22 06:26:00;;;;;;;;;2.00;2.00;;;;;-147.17;100.00;49810.56;5066336;28;51153;-52
2021/10/22 06:28:26;;;;;;;;;3.00;2.00;;;;;-147.17;100.00;49796.78;5040889;28;51972;-52
2021/10/22 06:30:51;;;;;;;;;3.75;3.75;;;;;-147.17;100.00;49847.97;5070304;28;51281;-53
2021/10/22 06:33:17;;;;;;;;;2.00;2.00;;;;;-147.17;100.00;49816.47;5064107;28;51206;-55
2021/10/22 06:35:44;;;;;;;;;3.00;2.25;;;;;-147.17;100.00;49822.38;5052765;28;51128;-53
2021/10/22 06:38:09;;;;;;;;;3.25;3.00;;;;;-147.17;100.00;49851.91;5058379;28;51847;-53
2021/10/22 06:40:34;;;;;;;;;2.75;2.75;;;;;-147.17;100.00;49765.31;5060934;28;51217;-52
2021/10/22 06:43:00;;;;;;;;;5.50;4.25;;;;;-147.17;100.00;49836.16;5064091;28;51095;-52
2021/10/22 06:45:26;;;;;;;;;6.00;6.00;;;;;-147.17;100.00;49792.84;5066727;27;51152;-53
2021/10/22 06:47:51;;;;;;;;;10.00;10.00;;;;;-147.17;100.00;49844.03;5049688;28;53854;-52
2021/10/22 06:50:17;;;;;;;;;3.75;3.75;;;;;-147.17;100.00;49830.25;5069029;28;51011;-54
2021/10/22 06:52:42;;;;;;;;;5.75;5.50;;;;;-147.17;100.00;49802.69;5068087;27;51340;-54
2021/10/22 06:55:09;;;;;;;;;4.50;4.00;;;;;-147.17;100.00;49847.97;5065215;27;52491;-52
2021/10/22 06:57:39;;;;;;;;;6.00;6.00;;;;;-147.17;100.00;49816.47;5056784;28;50993;-54
2021/10/22 07:00:06;;;;;;;;;3.00;3.00;;;;;-147.17;100.00;49800.72;5064704;28;51229;-52
2021/10/22 07:02:31;;;;;;;;;7.75;7.50;;;;;-147.17;100.00;49828.28;5068710;28;51091;-56
2021/10/22 07:04:56;;;;;;;;;4.75;4.25;;;;;-147.17;100.00;49792.84;5066702;28;51003;-55
2021/10/22 07:07:24;;;;;;;;;6.75;6.00;;;;;-147.17;100.00;49808.59;5057236;28;51837;-53
2021/10/22 07:09:51;;;;;;;;;3.00;3.00;;;;;-147.17;100.00;49828.28;5070436;28;51307;-55
2021/10/22 07:12:16;;;;;;;;;4.50;3.25;;;;;-147.17;100.00;49812.53;5072748;28;51173;-55
2021/10/22 07:14:49;;;;;;;;;4.00;4.00;;;;;-147.17;100.00;49810.56;5062260;28;51228;-54
2021/10/22 07:17:15;;;;;;;;;7.25;6.75;;;;;-147.17;100.00;49800.72;5075574;28;51204;-55
2021/10/22 07:19:40;;;;;;;;;2.75;2.50;;;;;-147.17;100.00;49792.84;5076049;28;51078;-56
2021/10/22 07:22:12;;;;;;;;;5.50;5.50;;;;;-147.17;100.00;49812.53;5069411;28;51161;-54
2021/10/22 07:24:38;;;;;;;;;8.00;7.25;;;;;-147.17;100.00;49836.16;5055215;28;51033;-51
2021/10/22 07:27:03;;;;;;;;;9.25;8.25;;;;;-147.17;100.00;49816.47;5051962;28;51912;-53
2021/10/22 07:29:29;;;;;;;;;3.00;3.00;;;;;-147.17;100.00;49822.38;5073918;28;51146;-54
2021/10/22 07:31:55;;;;;;;;;2.50;2.50;;;;;-147.17;100.00;49816.47;5055439;28;51071;-53
2021/10/22 07:34:22;;;;;;;;;3.50;3.00;;;;;-147.17;100.00;49818.44;5074335;28;51383;-54
2021/10/22 07:36:51;;;;;;;;;3.00;3.00;;;;;-147.17;100.00;49790.88;5062689;28;51150;-54
2021/10/22 07:39:18;;;;;;;;;3.25;3.25;;;;;-147.17;100.00;49840.09;5073783;28;51063;-55
2021/10/22 07:41:43;;;;;;;;;9.00;8.50;;;;;-147.17;100.00;49851.91;5062663;28;51106;-53
2021/10/22 07:44:10;;;;;;;;;4.50;3.75;;;;;-147.17;100.00;49832.22;5067756;28;51300;-52
2021/10/22 07:46:35;;;;;;;;;6.00;4.00;;;;;-147.17;100.00;49820.41;5055152;28;51907;-52
2021/10/22 07:49:00;;;;;;;;;7.25;6.00;;;;;-147.17;100.00;49773.19;5056640;28;51032;-52
2021/10/22 07:51:26;;;;;;;;;4.25;4.00;;;;;-147.17;100.00;49781.06;5062696;28;51041;-53
2021/10/22 07:53:51;;;;;;;;;4.00;4.00;;;;;-147.17;100.00;49771.22;5056083;28;51009;-51
2021/10/22 07:56:17;;;;;;;;;10.50;10.50;;;;;-147.17;97.09;49851.91;5069748;28;51862;-54
2021/10/22 07:58:43;;;;;;;;;5.00;4.33;;;;;-147.17;96.19;49867.66;5057221;28;50917;-51
2021/10/22 08:01:09;;;;;;;;;7.00;7.00;;;;;-147.17;93.55;49840.09;5075484;28;51103;-53
2021/10/22 08:03:34;;;;;;;;;3.67;3.33;;;;;-147.17;91.51;49873.56;5065138;28;51306;-53
2021/10/22 08:06:04;;;;;;;;;4.67;4.67;;;;;-147.17;87.54;50009.38;5046808;28;54187;-57
2021/10/22 08:08:30;;;;;;;;;5.67;5.33;;;;;-147.17;85.34;50082.22;5057822;28;51173;-56
2021/10/22 08:10:56;;;;;;;;;10.67;10.00;;;;;-147.17;83.77;50074.34;5073172;28;51167;-57
2021/10/22 08:13:21;;;;;;;;;5.00;4.00;;;;;-147.17;80.86;50239.69;5036330;28;51043;-55
2021/10/22 08:15:47;;;;;;;;;6.00;6.00;;;;;-147.17;77.86;50389.28;5054190;28;51181;-55
2021/10/22 08:18:13;;;;;;;;;5.00;4.67;;;;;-147.17;75.41;50489.69;5055166;28;50987;-57
2021/10/22 08:20:46;;;;;;;;;5.00;5.00;;;;;-147.17;74.49;50487.72;5045889;28;51150;-56
2021/10/22 08:23:13;;;;;;;;;4.00;4.00;;;;;-147.17;73.57;50538.91;5061847;28;51053;-56
2021/10/22 08:25:38;;;;;;;;;7.33;7.33;;;;;-147.17;73.69;50513.31;5054145;28;52266;-57
2021/10/22 08:28:03;;;;;;;;;8.33;7.00;;;;;-147.17;71.54;50655.06;5064901;28;51084;-57
2021/10/22 08:30:30;;;;;;;;;6.67;5.67;;;;;-147.17;71.83;50623.56;5055418;28;51643;-54
2021/10/22 08:32:57;;;;;;;;;7.00;6.00;;;;;-147.17;69.99;50698.38;5054944;28;50898;-56
2021/10/22 08:35:26;;;;;;;;;6.00;5.33;;;;;-147.17;69.85;50702.31;5059558;28;51760;-57
2021/10/22 08:37:52;;;;;;;;;5.33;5.33;;;;;-147.17;69.46;50690.50;5072707;28;51137;-57
2021/10/22 08:40:18;;;;;;;;;44.25;38.50;;;;;-147.17;67.77;50737.75;5054431;28;51051;-56
2021/10/22 08:42:45;;;;;;;;;13.00;12.50;;;;;-147.17;66.89;50846.03;5054271;28;51282;-59
2021/10/22 08:45:12;;;;;;;;;7.00;5.00;;;;;-147.17;65.54;50914.94;5053974;28;52879;-57
2021/10/22 08:47:38;;;;;;;;;5.67;5.00;;;;;-147.17;66.17;50871.63;5053767;28;50968;-56
2021/10/22 08:50:10;;;;;;;;;5.00;5.00;;;;;-147.17;64.31;50966.13;5054024;28;51090;-58
2021/10/22 08:52:36;;;;;;;;;4.67;4.00;;;;;-147.17;63.13;51040.94;5036258;28;51098;-54
2021/10/22 08:55:03;;;;;;;;;5.67;5.67;;;;;-147.17;62.70;51040.94;5035557;28;51885;-55
2021/10/22 08:57:29;;;;;;;;;4.33;4.33;;;;;-147.17;63.31;50981.88;5053402;28;51237;-57
2021/10/22 08:59:58;;;;;;;;;4.00;4.00;;;;;-147.17;63.92;50954.31;5044753;28;51079;-56
2021/10/22 09:02:25;;;;;;;;;4.67;4.67;;;;;-147.17;63.34;51029.13;5074485;28;51225;-55
2021/10/22 09:04:57;;;;;;;;;5.33;5.00;;;;;-147.17;62.53;51082.28;5074162;28;50951;-58
2021/10/22 09:07:48;;;;;;;;;4.33;4.33;;;;;-147.17;62.96;51033.06;5074224;28;50967;-57
2021/10/22 09:10:19;;;;;;;;;4.00;4.00;;;;;-147.17;61.17;51159.06;5061811;28;50859;-58
2021/10/22 09:12:56;;;;;;;;;7.00;5.33;;;;;-147.17;60.58;51200.44;5053866;28;51035;-58
2021/10/22 09:15:23;;;;;;;;;3.67;3.00;;;;;-147.17;59.83;51324.47;5053515;28;52970;-58
2021/10/22 09:17:50;;;;;;;;;6.00;5.00;;;;;-147.17;59.61;51247.69;5056487;28;51092;-54
2021/10/22 09:20:16;;;;;;;;;5.00;4.67;;;;;-147.17;59.42;51261.47;5073233;27;51171;-58
2021/10/22 09:22:51;;;;;;;;;4.00;4.00;;;;;-147.17;59.33;51316.59;5065911;28;51092;-56
2021/10/22 09:25:21;;;;;;;;;4.67;4.00;;;;;-147.17;59.01;51291.00;5053428;28;51026;-55
2021/10/22 09:27:56;;;;;;;;;4.33;4.00;;;;;-147.17;56.99;51387.47;5066803;28;51887;-54
2021/10/22 09:30:45;;;;;;;;;6.00;6.00;;;;;-147.17;57.52;51379.59;5055826;28;51074;-57
2021/10/22 09:33:10;;;;;;;;;3.33;3.33;;;;;-147.17;56.95;51442.63;5035409;28;50956;-58
2021/10/22 09:35:46;;;;;;;;;5.33;5.00;;;;;-147.17;57.34;51464.28;5052531;28;51942;-58
2021/10/22 09:38:29;;;;;;;;;6.00;4.00;;;;;-147.17;55.93;51562.72;5053193;28;51064;-59
2021/10/22 09:41:04;;;;;;;;;3.00;3.00;;;;;-147.17;56.13;51556.81;5053386;28;50962;-58
2021/10/22 09:43:37;;;;;;;;;3.00;3.00;;;;;-147.17;55.38;51548.94;5053398;28;52052;-58
2021/10/22 09:46:18;;;;;;;;;2.33;1.00;;;;;-147.17;55.41;51584.41;5052417;28;54030;-58
2021/10/22 09:48:46;;;;;;;;;4.00;3.00;;;;;-147.17;54.48;51676.94;5064954;28;51128;-59
2021/10/22 09:51:31;;;;;;;;;4.00;3.67;;;;;-147.17;53.84;51694.66;5053026;28;51000;-57
2021/10/22 09:54:03;;;;;;;;;3.00;2.33;;;;;-147.17;53.58;51761.63;5052839;28;51133;-57
2021/10/22 09:56:29;;;;;;;;;4.00;4.00;;;;;-147.17;53.13;51739.97;5073085;28;51911;-58
2021/10/22 09:59:05;;;;;;;;;3.33;3.33;;;;;-147.17;51.66;51852.22;5072764;28;50891;-58
2021/10/22 10:01:34;;;;;;;;;3.67;3.67;;;;;-147.17;51.86;51852.22;5073457;28;51024;-57
2021/10/22 10:04:00;;;;;;;;;11.33;10.33;;;;;-147.17;51.51;51883.72;5073037;28;51017;-56
2021/10/22 10:06:27;;;;;;;;;2.33;2.00;;;;;-147.17;48.45;51954.63;5073353;28;52352;-56
2021/10/22 10:08:52;;;;;;;;;2.67;2.33;;;;;-147.17;49.59;51956.59;5054613;28;51206;-56
2021/10/22 10:11:18;;;;;;;;;5.33;5.33;;;;;-147.17;48.93;51958.56;5054907;28;51113;-56
2021/10/22 10:13:44;;;;;;;;;2.00;2.00;;;;;-147.17;46.79;52053.09;5061448;28;51224;-58
2021/10/22 10:16:09;;;;;;;;;2.00;2.00;;;;;-147.17;44.79;52112.16;5043263;28;53035;-58
2021/10/22 10:18:44;;;;;;;;;3.00;2.67;;;;;-147.17;46.50;52068.84;5057268;28;51127;-57
2021/10/22 10:21:13;;;;;;;;;4.00;3.00;;;;;-147.17;45.05;52080.66;5052662;28;51057;-57
2021/10/22 10:23:42;;;;;;;;;2.67;2.67;;;;;-147.17;44.26;52159.44;5034751;28;51106;-57
2021/10/22 10:26:30;;;;;;;;;1.33;1.33;;;;;-147.17;43.06;52196.84;5052699;28;52731;-57
2021/10/22 10:28:58;;;;;;;;;3.33;3.00;;;;;-147.17;43.87;52159.44;5062441;28;51082;-57
2021/10/22 10:31:28;;;;;;;;;4.67;3.67;;;;;-147.17;42.80;52135.81;5052244;28;51055;-57
2021/10/22 10:33:55;;;;;;;;;5.33;3.33;;;;;-147.17;42.64;52179.13;5060819;28;51632;-57
2021/10/22 10:36:43;;;;;;;;;2.00;2.00;;;;;-147.17;41.50;52285.47;5058243;28;50982;-57
2021/10/22 10:39:09;;;;;;;;;4.33;4.00;;;;;-147.17;39.49;52346.53;5072305;28;51134;-57
2021/10/22 10:41:35;;;;;;;;;3.67;3.67;;;;;-147.17;39.44;52315.03;5072375;28;51083;-57
2021/10/22 10:44:22;;;;;;;;;4.00;2.33;;;;;-147.17;39.43;52305.19;5072639;28;50950;-56
2021/10/22 10:46:48;;;;;;;;;1.67;1.67;;;;;-147.17;38.57;52399.72;5071744;28;51849;-57
2021/10/22 10:50:02;;;;;;;;;3.00;3.00;;;;;-147.17;38.77;52411.53;5072220;28;51130;-58
2021/10/22 10:52:37;;;;;;;;;7.00;7.00;;;;;-147.17;38.08;52435.16;5036424;28;51090;-57
2021/10/22 10:55:31;;;;;;;;;3.00;2.67;;;;;-147.17;37.38;52466.69;5052449;28;51263;-58
2021/10/22 10:58:08;;;;;;;;;2.33;2.33;;;;;-147.17;35.44;52504.09;5051573;28;53074;-57
2021/10/22 11:00:51;;;;;;;;;2.00;2.00;;;;;-147.17;34.70;52549.41;5052126;28;51072;-58
2021/10/22 11:03:19;;;;;;;;;3.67;3.67;;;;;-147.17;34.55;52535.63;5052012;28;50999;-56
2021/10/22 11:05:49;;;;;;;;;2.00;2.00;;;;;-147.17;33.81;52596.69;5051852;28;51237;-57
2021/10/22 11:08:31;;;;;;;;;4.00;3.67;;;;;-147.17;31.87;52695.16;5033194;28;54299;-58
2021/10/22 11:13:43;;;;;;;;;3.00;3.00;;;;;-147.17;31.29;52576.97;5051922;28;50845;-57
2021/10/22 11:19:09;;;;;;;;;3.33;1.00;;;;;-147.17;31.06;52634.09;5050647;28;51198;-57
2021/10/22 11:21:45;;;;;;;;;2.00;2.00;;;;;-147.17;31.64;52612.44;5051566;28;51006;-58